KLRD/LRD METAR and TAF weather

Enter ICAO airport designator
Station Type Date Time Source
KLRD METAR 2021/04/18 02:56 UTC NOAA

KLRD 180256Z 07005KT 10SM OVC085 19/11 A3003 RMK AO2 SLP169 T01890106 53023


Station Type Date Time Source
KLRD Decoded METAR 2021/04/18 02:56 UTC NOAA

Laredo, Laredo International Airport, TX, United States (KLRD) 27-32-37N 099-27-41W
Apr 17, 2021 - 10:56 PM EDT / 2021.04.18 0256 UTC
Wind: from the ENE (070 degrees) at 6 MPH (5 KT):0
Visibility: 10 mile(s):0
Sky conditions: overcast
Temperature: 66.0 F (18.9 C)
Dew Point: 51.1 F (10.6 C)
Relative Humidity: 58%
Pressure (altimeter): 30.03 in. Hg (1016 hPa)
Pressure tendency: 0.07 inches (2.3 hPa) higher than three hours ago
ob: KLRD 180256Z 07005KT 10SM OVC085 19/11 A3003 RMK AO2 SLP169 T01890106 53023
cycle: 3

Station Type Date Time Source
KLRD TAF 2021/04/17 18:40 UTC NOAA

TAF KLRD 171738Z 1718/1818 01012KT P6SM VCTS SCT035CB BKN080
FM172200 01009KT P6SM BKN060
FM181500 05012KT P6SM SCT060 BKN100

Example: see airport list